Accueil
METAR-TAF:

METAR-TAF

Aéroports :

Aéroport international de Xi'an Xianyang

Xi'an, Chine

latitude: 34-26N, longitude: 108-45E, altitude: 479 m

Observation

Le bulletin a été fait il y a 24 minutes, à 06:00 UTC
Vent 8 kt de est/sud-est, variant entre nord/nord-est et sud/sud-est
Température 33°C
Humidité 34%
Pression 1004 hPa
Visibilité 10 km ou plus
pas de nuages en-dessous de 1500 mètres et pas de cumulonimbus.

METAR: ZLXY 210600Z 11004MPS 030V150 CAVOK 33/15 Q1004 NOSIG

Heure: 14:24 (06:24 UTC)

Prévision

Le bulletin a été fait il y a 3 heures et 21 minutes, à 03:03 UTC
Prévision valable du 21 à 06 UTC au 22 à 06 UTC
Vent 8 kt de est
Visibilité: 3000 m
brume sèche

TAF: ZLXY 210303Z 2106/2206 08004MPS 3000 HZ NSC TX34/2108Z TN21/2122Z

Observations et prévisions météorologiques de plus de 4000 aéroports (messages METAR et TAF).

Les stations disponibles sont représentées par des disques jaunes et rouges sur la carte.

Passer la souris dessus pour voir le nom de la station.

Cliquer dessus pour voir les observations et prévisions météorologiques.

Pour changer de carte: cliquez sur les boutons verts avec une croix noire pour zoomer, sur le bouton vert avec un tiret pour effectuer un zoom arrière, ou sur les flèches vertes pour les cartes adjacentes.


METAR-TAF: